Pronóstico
Mapa Interactivo
Aviación
Investigación
Hidrometeorología
Agrometeorología
Estaciones Automáticas
Transparencia
OMM WMO
Portada
Institución
Noticias
Imágenes
Tsunami
Historial
Boletines y Alertas
Contactos
Buscar Contenidos
Informe del Tiempo

                                               VUELOS DE BAJO NIVEL DESDE SUPERFICIE HASTA 24,000 PIES.

 

VALIDO DESDE 191200Z...…………………….…………………HASTA 200000Z
 

 

SANTO DOMINGO FIR...PORT-AU-PRINCE FIRHISPANIOLA...SCT020-SKC. TIL 13Z OCNL VIS 3-5SM BR. BECMG 1517SCT020 SCT050. AFT 20Z ISOL TSRA. OTLK...VFR TSRA. 01Z VFR. AFT

 

08Z OCNL MVFR BR.WTRS...SCT020. WND ENE 20G25KT. OTLK...VFR SHRA WND.

 

 
 

 

 

5,000 FT.

10,000 FT.

18,000 FT.

24,000 FT.

MDSD

1020KT+25ºC

1025KT+12ºC

0610KT-05ºC

0510KT-14ºC

MTPP

1020KT+25ºC

1025KT+12ºC

0610KT-05ºC

0510KT-14ºC

TJSJ

1025KT+18ºC

0725KT+11ºC

0810KT-04ºC

0710KT-15ºC

 

 

 

TAF MDPP 191000Z 1912/2012 00000KT 9999 SCT016 PROB30 1912/1918 7000 -TSRA FEW015CB BKN16 SCT070=

 

TAF MDST 191000Z 1912/2012 11005KT 9999 FEW016 SCT300=

 

 TAF MDPC 191000Z 1912/2012 06012KT 9999 FEW018 PROB30 1917/1922 7000 -TSRA FEW017CB BKN018 BKN070=

 

TAF MDBH 191000Z 1912/2012 13010KT 9999 FEW016CB FEW018 SCT300=

 

TAF MDJB 191000Z 1912/2012 36010KT 9999 FEW018 PROB40 1915/1921 6000 -TSRA FEW016CB BKN016 BKN070 BECMG 1915 /1917 07012KT=

 

TAF MDSD 191000Z 1912/2012 01008KT 9999 FEW016 PROB40 1915/1921 6000 -TSRA FEW016CB BKN016 BKN070 BECMG 1915 /1917 07012KT=

 

TAF MDLR 191000Z 1912/2012 02006KT 9999 FEW018 BECMG 1914/1916 08012KT=

 

TAF MDCY 191000Z 1912/2012 06006KT 9999 SCT016 SCT300 PROB30 1918/2000 7000 -TSRA FEW016CB BKN018 SCT070=

 

KMIA 190856Z 1909/2006 VRB03KT P6SM FEW030 FM191700 09010KT P6SM VCSH SCT030 FM200000 09005KT P6SM VCSH BKN030=

 

KJFK 190842Z 1909/2012 24008KT P6SM BKN008 BKN050 FM191000 25008KT P6SM SCT010 BKN050 BKN250  TEMPO 1910/1911 BKN010 FM191200 31008KT P6SM SCT050 FM191500 26008KT P6SM SCT025 SCT050  FM191800 19013KT P6SM SCT040 FM200300 27008KT P6SM FEW250=

 

TJSJ 190956Z 1910/2006 07011KT P6SM -RA SCT020 BKN040 FM191300 07015G25KT P6SM FEW030 SCT060 
FM192300 09010KT P6SM VCSH SCT030 BKN080=

 

MUHA 190500Z 1906/2006 07004KT 9000 SCT020 BECMG 1913/1915 06012KT TEMPO 1919/1923 VRB15KT 3000 TSRA FEW015CB BKN018 BECMG 2001/2003 10004KT=

 

TAF MUGM 1907/2007 35006KT 9999 FEW030 SCT280 QNH2987INS BECMG 1914/1916 12018G25KT 9999 FEW030 FEW280 QNH2991INS TEMPO 1918/1922 12020G30KT BECMG 2001/2003 34009KT 9999 SCT030 SCT100 BKN280 QNH2989INS T27/1910Z T34/1918Z FN00180=

 

TAF TNCC 190935Z 1912/2012 10013KT 9999 SCT018 TEMPO 1912/1922 5000 SHRA BKN014 PROB40 TEMPO 1912/1920 VRB10KT 3000 SHRA SCT012CB BKN030=

 

MKJP 190515Z 1906/2006 36005KT 9999 FEW020CB BECMG 1913/1915 14015KT FEW022 BECMG 2001/2003 31005KT=

 

 

 

PREPARADO POR: ROBIN RODRIGUEZ      

                     19 AGOSTO 2017.-